Flight Track Log - Related Links

Times and Time Zones

All times are in EDT time to prevent confusion due to time zone crossing. See the SKW4473 flight status page for this flight to view local times or setup timezone preferences in your user account.

Time Position Orientation Groundspeed Altitude Reporting Facility
EDT Latitude Longitude Course Direction KTS MPH feet Rate Location/Type
Fri 01:26:48 PM 40.7758 -111.9983 50° Northeast 162 186 5,000  Level Salt Lake Center
Fri 01:27:05 PM 40.7706 -111.9964 164° South 154 177 5,300 1,823 Climbing Salt Lake Center
Fri 01:28:07 PM 40.7589 -112.0767 259° West 231 266 7,400 2,146 Climbing Salt Lake Center
Fri 01:29:00 PM 40.9741 -112.2333 North  Level FlightAware Approximate
Fri 01:29:08 PM 40.8139 -112.1422 318° Northwest 265 305 9,700  Level Salt Lake Center
Fri 01:30:00 PM 41.0160 -112.1056 81° East  Level FlightAware Approximate
Fri 01:30:10 PM 40.8686 -112.2103 317° Northwest 269 310 12,700  Level Salt Lake Center
Fri 01:31:00 PM 41.0955 -111.9976 50° Northeast  Level FlightAware Approximate
Fri 01:31:12 PM 40.9453 -112.2375 345° North 297 342 14,700  Level Salt Lake Center
Fri 01:32:00 PM 41.1753 -111.8722 50° Northeast  Level FlightAware Approximate
Fri 01:32:13 PM 41.0167 -112.1892 27° Northeast 321 369 16,800  Level Salt Lake Center
Fri 01:33:15 PM 41.0486 -112.0736 70° East 340 391 18,500 1,645 Climbing Salt Lake Center
Fri 01:34:17 PM 41.1142 -111.9789 47° Northeast 347 399 20,200 1,512 Climbing Salt Lake Center
Fri 01:35:18 PM 41.1814 -111.8786 48° Northeast 356 410 21,600 1,415 Climbing Salt Lake Center
Fri 01:36:20 PM 41.2644 -111.7986 36° Northeast 367 422 23,100 1,306 Climbing Salt Lake Center
Fri 01:37:22 PM 41.3547 -111.7331 29° Northeast 369 425 24,300 1,210 Climbing Salt Lake Center
Fri 01:38:24 PM 41.4739 -111.6775 19° North 377 434 25,600 1,268 Climbing Salt Lake Center
Fri 01:39:25 PM 41.5781 -111.6358 17° North 389 448 26,900 1,122 Climbing Salt Lake Center
Fri 01:40:27 PM 41.6808 -111.5947 17° North 386 444 27,900 919 Climbing Salt Lake Center
Fri 01:41:29 PM 41.7861 -111.5539 16° North 394 453 28,800 774 Climbing Salt Lake Center
Fri 01:42:31 PM 41.8942 -111.5258 11° North 397 457 29,500 677 Climbing Salt Lake Center
Fri 01:43:33 PM 42.0056 -111.5025 North 404 465 30,200 732 Climbing Salt Lake Center
Fri 01:44:34 PM 42.1164 -111.4767 10° North 404 465 31,000 829 Climbing Salt Lake Center
Fri 01:45:36 PM 42.2514 -111.4464 North 408 470 31,900 484 Climbing Salt Lake Center
Fri 01:46:38 PM 42.3594 -111.4461 360° North 384 442 32,000 48 Climbing Salt Lake Center
Fri 01:47:40 PM 42.4617 -111.4661 355° North 374 430 32,000  Level Salt Lake Center
Fri 01:48:00 PM 42.5280 -111.4661 355° North  Level FlightAware Approximate
Fri 01:48:42 PM 42.5603 -111.4850 352° North 360 414 32,000  Level Salt Lake Center
Fri 01:49:44 PM 42.6569 -111.5044 352° North 353 406 32,000  Level Salt Lake Center
Fri 01:50:46 PM 42.7603 -111.5256 351° North 354 407 32,000  Level Salt Lake Center
Fri 01:51:48 PM 42.8700 -111.5450 353° North 356 410 32,000  Level Salt Lake Center
Fri 01:52:50 PM 42.9628 -111.5644 351° North 354 407 32,000  Level Salt Lake Center
Fri 01:54:00 PM 43.1055 -111.5929 352° North  Level FlightAware Approximate
Fri 01:54:54 PM 43.1658 -111.6056 352° North 355 409 32,000  Level Salt Lake Center
Fri 01:55:56 PM 43.2767 -111.6269 352° North 358 412 32,000  Level Salt Lake Center
Fri 01:56:58 PM 43.3706 -111.6472 351° North 357 411 32,000  Level Salt Lake Center
Fri 01:58:00 PM 43.4650 -111.6656 352° North 359 413 32,000  Level Salt Lake Center
Fri 01:59:02 PM 43.5758 -111.6881 352° North 359 413 32,000  Level Salt Lake Center
Fri 02:00:04 PM 43.6706 -111.7061 352° North 358 412 32,000  Level Salt Lake Center
Fri 02:01:06 PM 43.7811 -111.7294 351° North 358 412 32,000  Level Salt Lake Center
Fri 02:02:08 PM 43.8756 -111.7494 351° North 358 412 32,000  Level Salt Lake Center
Fri 02:03:10 PM 43.9878 -111.7725 352° North 362 417 32,000  Level Salt Lake Center
Fri 02:04:12 PM 44.0836 -111.7922 352° North 364 419 32,000  Level Salt Lake Center
Fri 02:05:14 PM 44.1944 -111.8147 352° North 360 414 32,000  Level Salt Lake Center
Fri 02:06:16 PM 44.2906 -111.8347 352° North 362 417 32,000  Level Salt Lake Center
Fri 02:07:18 PM 44.4025 -111.8572 352° North 362 417 32,000  Level Salt Lake Center
Fri 02:08:20 PM 44.4997 -111.8772 352° North 364 419 32,000  Level Salt Lake Center
Fri 02:09:22 PM 44.5964 -111.8986 351° North 364 419 32,000  Level Salt Lake Center
Fri 02:10:24 PM 44.7078 -111.9219 352° North 362 417 32,000 -194 Level Salt Lake Center
Fri 02:11:26 PM 44.8042 -111.9425 351° North 362 417 31,600 -1,016 Descending Salt Lake Center
Fri 02:12:28 PM 44.9194 -111.9669 351° North 371 427 29,900 -1,548 Descending Salt Lake Center
Fri 02:13:30 PM 45.0136 -111.9864 352° North 360 414 28,400 -1,500 Descending Salt Lake Center
Fri 02:14:32 PM 45.1194 -112.0092 351° North 352 405 26,800 -1,500 Descending Salt Lake Center
Fri 02:15:34 PM 45.2131 -112.0281 352° North 342 394 25,300 -1,500 Descending Salt Lake Center
Fri 02:16:36 PM 45.3050 -112.0481 351° North 333 383 23,700 -1,500 Descending Salt Lake Center
Fri 02:17:38 PM 45.3942 -112.0678 351° North 325 374 22,200 -1,452 Descending Salt Lake Center
Fri 02:18:40 PM 45.4811 -112.0875 351° North 316 364 20,700 -1,452 Descending Salt Lake Center
Fri 02:19:42 PM 45.5656 -112.1053 352° North 309 356 19,200 -1,452 Descending Salt Lake Center
Fri 02:20:44 PM 45.6486 -112.1242 351° North 303 349 17,700 -1,452 Descending Salt Lake Center
Fri 02:21:46 PM 45.7464 -112.1467 351° North 297 342 16,200 -1,452 Descending Salt Lake Center
Fri 02:22:48 PM 45.8244 -112.1633 352° North 287 330 14,700 -1,065 Descending Salt Lake Center
Fri 02:23:50 PM 45.9044 -112.1575 North 288 331 14,000 -339 Descending Salt Lake Center
Fri 02:24:52 PM 45.9794 -112.1367 11° North 279 321 14,000  Level Salt Lake Center
Fri 02:25:54 PM 46.0508 -112.1153 12° North 267 307 14,000 -48 Level Salt Lake Center
Fri 02:26:56 PM 46.1236 -112.0953 11° North 265 305 13,900  Descending Salt Lake Center
Fri 02:27:58 PM 46.1972 -112.0753 11° North 267 307 14,000 48 Climbing Salt Lake Center
Fri 02:29:00 PM 46.2717 -112.0150 29° Northeast 271 312 14,000 -387 Level Salt Lake Center
Fri 02:30:02 PM 46.2753 -111.9033 87° East 279 321 13,200 -774 Descending Salt Lake Center
Fri 02:32:00 PM 46.4635 -111.9483 10° North  Level Estimated
Fri 02:39:00 PM 46.6000 -111.9667 90° East  Level FlightAware Approximate

Login

Don't have an account? Register now (free) for customized features, flight alerts, and more!